sensor_id;sensor_type;location;lat;lon;timestamp;pressure;altitude;pressure_sealevel;temperature;humidity
11952;BME280;6036;41.840;23.486;2022-11-15T00:00:53;90928.00;;;8.17;56.40
11952;BME280;6036;41.840;23.486;2022-11-15T00:03:23;90925.91;;;8.28;56.14
11952;BME280;6036;41.840;23.486;2022-11-15T00:05:50;90932.63;;;8.20;56.09
11952;BME280;6036;41.840;23.486;2022-11-15T00:08:16;90932.41;;;7.74;57.49
11952;BME280;6036;41.840;23.486;2022-11-15T00:10:42;90929.59;;;7.14;59.08
11952;BME280;6036;41.840;23.486;2022-11-15T00:13:08;90918.44;;;6.83;61.09
11952;BME280;6036;41.840;23.486;2022-11-15T00:15:38;90927.47;;;7.55;58.52
11952;BME280;6036;41.840;23.486;2022-11-15T00:18:05;90926.56;;;7.68;57.79
11952;BME280;6036;41.840;23.486;2022-11-15T00:20:31;90923.25;;;6.98;60.51
11952;BME280;6036;41.840;23.486;2022-11-15T00:22:58;90919.06;;;7.19;59.80
11952;BME280;6036;41.840;23.486;2022-11-15T00:25:23;90919.50;;;7.12;59.34
11952;BME280;6036;41.840;23.486;2022-11-15T00:27:49;90923.38;;;6.93;60.92
11952;BME280;6036;41.840;23.486;2022-11-15T00:30:17;90923.19;;;6.59;62.34
11952;BME280;6036;41.840;23.486;2022-11-15T00:32:42;90920.66;;;6.98;61.49
11952;BME280;6036;41.840;23.486;2022-11-15T00:35:08;90909.41;;;7.11;60.49
11952;BME280;6036;41.840;23.486;2022-11-15T00:37:33;90918.53;;;7.39;59.90
11952;BME280;6036;41.840;23.486;2022-11-15T00:39:58;90915.19;;;7.47;59.10
11952;BME280;6036;41.840;23.486;2022-11-15T00:42:24;90909.81;;;7.44;59.31
11952;BME280;6036;41.840;23.486;2022-11-15T00:44:49;90905.13;;;7.15;59.98
11952;BME280;6036;41.840;23.486;2022-11-15T00:47:15;90897.09;;;7.42;59.52
11952;BME280;6036;41.840;23.486;2022-11-15T00:49:40;90905.81;;;7.38;59.07
11952;BME280;6036;41.840;23.486;2022-11-15T00:52:07;90897.78;;;7.17;60.53
11952;BME280;6036;41.840;23.486;2022-11-15T00:54:32;90906.38;;;7.26;59.71
11952;BME280;6036;41.840;23.486;2022-11-15T00:56:57;90899.94;;;6.62;61.55
11952;BME280;6036;41.840;23.486;2022-11-15T00:59:23;90898.50;;;7.09;60.55
11952;BME280;6036;41.840;23.486;2022-11-15T01:01:48;90893.22;;;6.92;60.42
11952;BME280;6036;41.840;23.486;2022-11-15T01:04:14;90900.50;;;7.12;60.74
11952;BME280;6036;41.840;23.486;2022-11-15T01:06:39;90902.81;;;7.61;59.02
11952;BME280;6036;41.840;23.486;2022-11-15T01:09:04;90901.28;;;7.21;59.52
11952;BME280;6036;41.840;23.486;2022-11-15T01:11:30;90899.31;;;7.18;59.59
11952;BME280;6036;41.840;23.486;2022-11-15T01:13:55;90896.28;;;6.94;60.66
11952;BME280;6036;41.840;23.486;2022-11-15T01:16:21;90901.72;;;7.45;58.95
11952;BME280;6036;41.840;23.486;2022-11-15T01:18:46;90900.34;;;7.48;58.36
11952;BME280;6036;41.840;23.486;2022-11-15T01:21:17;90901.56;;;7.50;58.63
11952;BME280;6036;41.840;23.486;2022-11-15T01:23:43;90900.47;;;7.51;57.84
11952;BME280;6036;41.840;23.486;2022-11-15T01:26:12;90899.88;;;7.54;57.77
11952;BME280;6036;41.840;23.486;2022-11-15T01:28:39;90896.88;;;7.86;57.42
11952;BME280;6036;41.840;23.486;2022-11-15T01:31:09;90891.75;;;7.56;57.01
11952;BME280;6036;41.840;23.486;2022-11-15T01:33:36;90895.28;;;7.51;57.97
11952;BME280;6036;41.840;23.486;2022-11-15T01:36:11;90886.44;;;7.69;57.38
11952;BME280;6036;41.840;23.486;2022-11-15T01:38:36;90887.81;;;7.75;56.84
11952;BME280;6036;41.840;23.486;2022-11-15T01:41:03;90887.53;;;7.77;57.03
11952;BME280;6036;41.840;23.486;2022-11-15T01:43:34;90874.81;;;7.93;56.84
11952;BME280;6036;41.840;23.486;2022-11-15T01:48:57;90878.28;;;7.54;57.48
11952;BME280;6036;41.840;23.486;2022-11-15T01:51:26;90885.34;;;7.62;57.36
11952;BME280;6036;41.840;23.486;2022-11-15T01:53:55;90891.94;;;7.59;57.19
11952;BME280;6036;41.840;23.486;2022-11-15T01:56:25;90887.09;;;7.27;58.02
11952;BME280;6036;41.840;23.486;2022-11-15T01:58:55;90888.38;;;7.47;58.21
11952;BME280;6036;41.840;23.486;2022-11-15T02:01:22;90892.38;;;7.61;57.23
11952;BME280;6036;41.840;23.486;2022-11-15T02:03:59;90888.94;;;7.27;57.67
11952;BME280;6036;41.840;23.486;2022-11-15T02:06:26;90891.56;;;7.35;57.35
11952;BME280;6036;41.840;23.486;2022-11-15T02:08:52;90888.00;;;7.22;58.12
11952;BME280;6036;41.840;23.486;2022-11-15T02:11:19;90898.16;;;7.41;57.23
11952;BME280;6036;41.840;23.486;2022-11-15T02:13:44;90883.91;;;6.91;58.62
11952;BME280;6036;41.840;23.486;2022-11-15T02:18:50;90888.41;;;7.16;59.02
11952;BME280;6036;41.840;23.486;2022-11-15T02:24:29;90872.59;;;6.34;62.41
11952;BME280;6036;41.840;23.486;2022-11-15T02:30:04;90871.69;;;6.16;62.67
11952;BME280;6036;41.840;23.486;2022-11-15T02:32:45;90876.09;;;6.60;61.73
11952;BME280;6036;41.840;23.486;2022-11-15T02:40:57;90862.91;;;6.87;59.62
11952;BME280;6036;41.840;23.486;2022-11-15T02:43:33;90872.63;;;6.42;61.65
11952;BME280;6036;41.840;23.486;2022-11-15T02:49:33;90861.09;;;6.35;62.34
11952;BME280;6036;41.840;23.486;2022-11-15T02:51:59;90859.63;;;5.98;64.07
11952;BME280;6036;41.840;23.486;2022-11-15T02:54:29;90857.00;;;5.89;64.21
11952;BME280;6036;41.840;23.486;2022-11-15T02:56:58;90858.31;;;6.53;62.24
11952;BME280;6036;41.840;23.486;2022-11-15T03:02:20;90868.31;;;6.99;60.34
11952;BME280;6036;41.840;23.486;2022-11-15T03:04:56;90873.03;;;7.28;58.46
11952;BME280;6036;41.840;23.486;2022-11-15T03:07:39;90871.44;;;7.10;58.19
11952;BME280;6036;41.840;23.486;2022-11-15T03:10:13;90878.78;;;7.16;58.91
11952;BME280;6036;41.840;23.486;2022-11-15T03:12:46;90872.63;;;7.04;58.13
11952;BME280;6036;41.840;23.486;2022-11-15T03:15:25;90871.28;;;6.76;59.53
11952;BME280;6036;41.840;23.486;2022-11-15T03:18:16;90870.81;;;6.74;58.70
11952;BME280;6036;41.840;23.486;2022-11-15T03:20:45;90871.34;;;6.31;60.63
11952;BME280;6036;41.840;23.486;2022-11-15T03:23:12;90869.88;;;6.70;60.09
11952;BME280;6036;41.840;23.486;2022-11-15T03:25:43;90862.88;;;6.48;61.02
11952;BME280;6036;41.840;23.486;2022-11-15T03:28:14;90863.88;;;6.38;61.78
11952;BME280;6036;41.840;23.486;2022-11-15T03:30:43;90856.50;;;6.54;61.75
11952;BME280;6036;41.840;23.486;2022-11-15T03:33:11;90857.75;;;6.96;59.96
11952;BME280;6036;41.840;23.486;2022-11-15T03:35:39;90852.50;;;6.79;60.63
11952;BME280;6036;41.840;23.486;2022-11-15T03:43:06;90851.84;;;6.20;63.13
11952;BME280;6036;41.840;23.486;2022-11-15T03:45:46;90845.78;;;5.67;64.96
11952;BME280;6036;41.840;23.486;2022-11-15T03:48:18;90842.69;;;6.23;62.85
11952;BME280;6036;41.840;23.486;2022-11-15T03:50:46;90840.59;;;6.55;61.57
11952;BME280;6036;41.840;23.486;2022-11-15T03:53:12;90843.59;;;6.18;62.20
11952;BME280;6036;41.840;23.486;2022-11-15T03:55:38;90841.22;;;6.61;60.59
11952;BME280;6036;41.840;23.486;2022-11-15T03:58:04;90841.31;;;6.78;59.75
11952;BME280;6036;41.840;23.486;2022-11-15T04:00:29;90842.94;;;6.66;60.60
11952;BME280;6036;41.840;23.486;2022-11-15T04:02:55;90839.69;;;6.60;61.14
11952;BME280;6036;41.840;23.486;2022-11-15T04:05:20;90834.56;;;6.77;59.71
11952;BME280;6036;41.840;23.486;2022-11-15T04:07:46;90833.19;;;6.80;60.05
11952;BME280;6036;41.840;23.486;2022-11-15T04:10:12;90829.09;;;6.79;60.04
11952;BME280;6036;41.840;23.486;2022-11-15T04:12:42;90832.53;;;6.66;60.88
11952;BME280;6036;41.840;23.486;2022-11-15T04:15:09;90827.22;;;6.71;59.80
11952;BME280;6036;41.840;23.486;2022-11-15T04:17:49;90831.38;;;6.89;58.49
11952;BME280;6036;41.840;23.486;2022-11-15T04:20:20;90822.72;;;6.93;58.36
11952;BME280;6036;41.840;23.486;2022-11-15T04:23:05;90818.44;;;6.97;58.15
11952;BME280;6036;41.840;23.486;2022-11-15T04:25:51;90829.88;;;6.96;58.09
11952;BME280;6036;41.840;23.486;2022-11-15T04:28:16;90818.31;;;6.72;59.07
11952;BME280;6036;41.840;23.486;2022-11-15T04:30:42;90807.78;;;6.77;58.88
11952;BME280;6036;41.840;23.486;2022-11-15T04:33:08;90810.88;;;6.48;58.95
11952;BME280;6036;41.840;23.486;2022-11-15T04:35:33;90807.31;;;6.35;59.56
11952;BME280;6036;41.840;23.486;2022-11-15T04:37:59;90815.25;;;6.61;59.86
11952;BME280;6036;41.840;23.486;2022-11-15T04:40:25;90805.16;;;6.37;59.96
11952;BME280;6036;41.840;23.486;2022-11-15T04:42:50;90808.38;;;6.34;59.60
11952;BME280;6036;41.840;23.486;2022-11-15T04:45:16;90798.19;;;6.46;59.45
11952;BME280;6036;41.840;23.486;2022-11-15T04:47:45;90798.13;;;6.29;59.47
11952;BME280;6036;41.840;23.486;2022-11-15T04:50:11;90799.72;;;6.17;60.75
11952;BME280;6036;41.840;23.486;2022-11-15T04:52:40;90803.94;;;6.35;60.58
11952;BME280;6036;41.840;23.486;2022-11-15T04:55:06;90803.72;;;6.53;60.01
11952;BME280;6036;41.840;23.486;2022-11-15T04:57:31;90798.91;;;6.38;59.23
11952;BME280;6036;41.840;23.486;2022-11-15T04:59:56;90798.53;;;6.53;59.94
11952;BME280;6036;41.840;23.486;2022-11-15T05:02:22;90807.19;;;6.40;59.51
11952;BME280;6036;41.840;23.486;2022-11-15T05:04:47;90804.16;;;6.16;60.56
11952;BME280;6036;41.840;23.486;2022-11-15T05:07:13;90791.63;;;6.18;59.91
11952;BME280;6036;41.840;23.486;2022-11-15T05:09:38;90797.09;;;5.50;61.73
11952;BME280;6036;41.840;23.486;2022-11-15T05:12:04;90803.16;;;5.68;62.10
11952;BME280;6036;41.840;23.486;2022-11-15T05:14:29;90792.03;;;5.67;63.07
11952;BME280;6036;41.840;23.486;2022-11-15T05:16:55;90790.63;;;6.06;62.08
11952;BME280;6036;41.840;23.486;2022-11-15T05:19:20;90784.88;;;5.73;63.49
11952;BME280;6036;41.840;23.486;2022-11-15T05:21:47;90788.13;;;5.56;63.70
11952;BME280;6036;41.840;23.486;2022-11-15T05:24:12;90784.06;;;5.64;63.91
11952;BME280;6036;41.840;23.486;2022-11-15T05:26:38;90787.31;;;6.14;62.84
11952;BME280;6036;41.840;23.486;2022-11-15T05:29:03;90782.75;;;6.50;61.27
11952;BME280;6036;41.840;23.486;2022-11-15T05:31:28;90783.19;;;6.43;60.87
11952;BME280;6036;41.840;23.486;2022-11-15T05:33:55;90789.94;;;5.92;63.31
11952;BME280;6036;41.840;23.486;2022-11-15T05:36:25;90784.34;;;6.29;62.51
11952;BME280;6036;41.840;23.486;2022-11-15T05:38:53;90800.69;;;6.60;61.28
11952;BME280;6036;41.840;23.486;2022-11-15T05:41:20;90807.47;;;6.70;60.19
11952;BME280;6036;41.840;23.486;2022-11-15T05:43:48;90803.81;;;6.79;60.24
11952;BME280;6036;41.840;23.486;2022-11-15T05:46:15;90809.25;;;6.61;59.92
11952;BME280;6036;41.840;23.486;2022-11-15T05:48:45;90810.47;;;6.02;62.97
11952;BME280;6036;41.840;23.486;2022-11-15T05:51:11;90818.44;;;6.67;61.52
11952;BME280;6036;41.840;23.486;2022-11-15T05:53:37;90816.13;;;7.86;57.95
11952;BME280;6036;41.840;23.486;2022-11-15T05:56:04;90816.25;;;9.26;54.56
11952;BME280;6036;41.840;23.486;2022-11-15T05:58:34;90810.94;;;10.46;50.42
11952;BME280;6036;41.840;23.486;2022-11-15T06:01:01;90814.84;;;11.33;47.44
11952;BME280;6036;41.840;23.486;2022-11-15T06:03:26;90807.31;;;12.20;45.37
11952;BME280;6036;41.840;23.486;2022-11-15T06:05:52;90811.28;;;12.69;44.41
11952;BME280;6036;41.840;23.486;2022-11-15T06:08:17;90820.44;;;13.50;42.35
11952;BME280;6036;41.840;23.486;2022-11-15T06:10:43;90807.72;;;13.87;40.78
11952;BME280;6036;41.840;23.486;2022-11-15T06:13:08;90815.03;;;14.89;39.14
11952;BME280;6036;41.840;23.486;2022-11-15T06:15:34;90811.97;;;15.29;37.43
11952;BME280;6036;41.840;23.486;2022-11-15T06:17:59;90812.69;;;15.48;37.58
11952;BME280;6036;41.840;23.486;2022-11-15T06:20:26;90806.84;;;16.11;36.78
11952;BME280;6036;41.840;23.486;2022-11-15T06:23:04;90808.63;;;17.33;34.77
11952;BME280;6036;41.840;23.486;2022-11-15T06:25:30;90810.41;;;17.62;33.84
11952;BME280;6036;41.840;23.486;2022-11-15T06:27:58;90804.19;;;18.53;32.51
11952;BME280;6036;41.840;23.486;2022-11-15T06:30:25;90805.84;;;18.96;31.76
11952;BME280;6036;41.840;23.486;2022-11-15T06:33:12;90814.38;;;19.48;30.62
11952;BME280;6036;41.840;23.486;2022-11-15T06:35:38;90806.38;;;20.18;29.54
11952;BME280;6036;41.840;23.486;2022-11-15T06:38:08;90812.03;;;20.45;29.04
11952;BME280;6036;41.840;23.486;2022-11-15T06:40:35;90818.50;;;21.41;27.96
11952;BME280;6036;41.840;23.486;2022-11-15T06:43:02;90818.78;;;22.56;26.38
11952;BME280;6036;41.840;23.486;2022-11-15T06:45:27;90818.38;;;22.95;25.27
11952;BME280;6036;41.840;23.486;2022-11-15T06:47:53;90820.22;;;22.68;25.53
11952;BME280;6036;41.840;23.486;2022-11-15T06:50:19;90826.84;;;22.09;25.55
11952;BME280;6036;41.840;23.486;2022-11-15T06:52:44;90820.72;;;22.12;25.56
11952;BME280;6036;41.840;23.486;2022-11-15T06:55:09;90813.03;;;22.58;24.59
11952;BME280;6036;41.840;23.486;2022-11-15T06:57:36;90811.84;;;23.00;24.64
11952;BME280;6036;41.840;23.486;2022-11-15T07:00:04;90816.31;;;23.10;24.04
11952;BME280;6036;41.840;23.486;2022-11-15T07:02:29;90812.16;;;23.36;24.13
11952;BME280;6036;41.840;23.486;2022-11-15T07:04:55;90817.59;;;23.59;23.72
11952;BME280;6036;41.840;23.486;2022-11-15T07:07:20;90803.81;;;24.80;22.78
11952;BME280;6036;41.840;23.486;2022-11-15T07:09:46;90808.22;;;26.01;21.28
11952;BME280;6036;41.840;23.486;2022-11-15T07:12:11;90802.28;;;26.25;21.16
11952;BME280;6036;41.840;23.486;2022-11-15T07:14:36;90801.44;;;26.89;20.39
11952;BME280;6036;41.840;23.486;2022-11-15T07:17:05;90806.44;;;25.94;21.31
11952;BME280;6036;41.840;23.486;2022-11-15T07:19:31;90798.94;;;26.21;21.29
11952;BME280;6036;41.840;23.486;2022-11-15T07:21:56;90799.59;;;26.41;20.88
11952;BME280;6036;41.840;23.486;2022-11-15T07:24:22;90806.41;;;26.91;20.76
11952;BME280;6036;41.840;23.486;2022-11-15T07:26:47;90800.78;;;27.43;20.62
11952;BME280;6036;41.840;23.486;2022-11-15T07:29:13;90803.81;;;28.46;19.11
11952;BME280;6036;41.840;23.486;2022-11-15T07:31:38;90800.78;;;28.56;19.38
11952;BME280;6036;41.840;23.486;2022-11-15T07:34:04;90806.41;;;29.39;17.81
11952;BME280;6036;41.840;23.486;2022-11-15T07:36:29;90810.34;;;30.00;17.35
11952;BME280;6036;41.840;23.486;2022-11-15T07:38:55;90808.28;;;30.04;17.64
11952;BME280;6036;41.840;23.486;2022-11-15T07:41:20;90808.53;;;30.85;16.81
11952;BME280;6036;41.840;23.486;2022-11-15T07:43:45;90808.34;;;31.80;16.08
11952;BME280;6036;41.840;23.486;2022-11-15T07:46:11;90805.69;;;32.22;15.64
11952;BME280;6036;41.840;23.486;2022-11-15T07:48:39;90802.25;;;32.12;15.37
11952;BME280;6036;41.840;23.486;2022-11-15T07:51:06;90803.41;;;31.69;16.05
11952;BME280;6036;41.840;23.486;2022-11-15T07:53:32;90800.34;;;32.36;15.20
11952;BME280;6036;41.840;23.486;2022-11-15T07:55:57;90805.44;;;34.55;13.59
11952;BME280;6036;41.840;23.486;2022-11-15T07:58:23;90806.53;;;35.38;12.72
11952;BME280;6036;41.840;23.486;2022-11-15T08:00:48;90802.56;;;34.00;13.36
11952;BME280;6036;41.840;23.486;2022-11-15T08:03:15;90799.38;;;35.41;12.72
11952;BME280;6036;41.840;23.486;2022-11-15T08:05:42;90803.63;;;34.66;13.41
11952;BME280;6036;41.840;23.486;2022-11-15T08:08:09;90805.66;;;35.26;13.03
11952;BME280;6036;41.840;23.486;2022-11-15T08:10:35;90791.81;;;35.50;12.62
11952;BME280;6036;41.840;23.486;2022-11-15T08:13:03;90795.19;;;36.17;12.30
11952;BME280;6036;41.840;23.486;2022-11-15T08:15:29;90791.94;;;36.86;11.51
11952;BME280;6036;41.840;23.486;2022-11-15T08:18:00;90794.97;;;37.42;11.56
11952;BME280;6036;41.840;23.486;2022-11-15T08:20:27;90790.38;;;37.16;11.19
11952;BME280;6036;41.840;23.486;2022-11-15T08:22:59;90795.06;;;37.69;11.14
11952;BME280;6036;41.840;23.486;2022-11-15T08:25:26;90792.34;;;36.31;11.78
11952;BME280;6036;41.840;23.486;2022-11-15T08:27:54;90792.47;;;36.90;11.55
11952;BME280;6036;41.840;23.486;2022-11-15T08:30:19;90793.91;;;37.28;11.72
11952;BME280;6036;41.840;23.486;2022-11-15T08:32:45;90786.44;;;38.21;10.79
11952;BME280;6036;41.840;23.486;2022-11-15T08:35:10;90789.44;;;38.45;10.61
11952;BME280;6036;41.840;23.486;2022-11-15T08:37:36;90782.19;;;38.20;10.49
11952;BME280;6036;41.840;23.486;2022-11-15T08:40:02;90783.19;;;38.22;10.24
11952;BME280;6036;41.840;23.486;2022-11-15T08:42:27;90782.31;;;39.27;10.45
11952;BME280;6036;41.840;23.486;2022-11-15T08:44:53;90782.69;;;39.64;9.53
11952;BME280;6036;41.840;23.486;2022-11-15T08:47:18;90776.69;;;39.60;9.82
11952;BME280;6036;41.840;23.486;2022-11-15T08:49:44;90774.69;;;40.07;9.30
11952;BME280;6036;41.840;23.486;2022-11-15T08:52:09;90773.91;;;39.72;9.85
11952;BME280;6036;41.840;23.486;2022-11-15T08:54:34;90770.44;;;40.71;9.23
11952;BME280;6036;41.840;23.486;2022-11-15T08:57:00;90768.34;;;40.83;9.21
11952;BME280;6036;41.840;23.486;2022-11-15T08:59:25;90764.03;;;41.12;9.04
11952;BME280;6036;41.840;23.486;2022-11-15T09:01:51;90764.19;;;41.01;8.60
11952;BME280;6036;41.840;23.486;2022-11-15T09:04:16;90761.66;;;40.19;9.08
11952;BME280;6036;41.840;23.486;2022-11-15T09:06:42;90760.94;;;40.43;9.50
11952;BME280;6036;41.840;23.486;2022-11-15T09:09:07;90753.69;;;40.75;9.33
11952;BME280;6036;41.840;23.486;2022-11-15T09:11:32;90752.91;;;41.66;8.67
11952;BME280;6036;41.840;23.486;2022-11-15T09:13:58;90745.53;;;41.36;8.99
11952;BME280;6036;41.840;23.486;2022-11-15T09:16:23;90741.16;;;42.21;8.60
11952;BME280;6036;41.840;23.486;2022-11-15T09:18:49;90733.84;;;42.24;9.08
11952;BME280;6036;41.840;23.486;2022-11-15T09:21:14;90741.31;;;42.42;8.51
11952;BME280;6036;41.840;23.486;2022-11-15T09:23:40;90740.81;;;43.41;7.65
11952;BME280;6036;41.840;23.486;2022-11-15T09:26:07;90721.03;;;41.94;8.69
11952;BME280;6036;41.840;23.486;2022-11-15T09:28:33;90727.22;;;42.45;8.65
11952;BME280;6036;41.840;23.486;2022-11-15T09:31:04;90731.81;;;43.87;7.53
11952;BME280;6036;41.840;23.486;2022-11-15T09:33:30;90730.28;;;43.99;7.72
11952;BME280;6036;41.840;23.486;2022-11-15T09:36:06;90721.94;;;43.18;8.15
11952;BME280;6036;41.840;23.486;2022-11-15T09:38:33;90711.38;;;40.35;9.76
11952;BME280;6036;41.840;23.486;2022-11-15T09:42:16;90702.97;;;42.31;9.03
11952;BME280;6036;41.840;23.486;2022-11-15T09:50:08;90702.59;;;46.10;6.38
11952;BME280;6036;41.840;23.486;2022-11-15T09:52:36;90693.78;;;45.04;6.66
11952;BME280;6036;41.840;23.486;2022-11-15T09:55:04;90682.28;;;37.63;11.19
11952;BME280;6036;41.840;23.486;2022-11-15T09:57:39;90684.31;;;37.96;10.97
11952;BME280;6036;41.840;23.486;2022-11-15T10:00:19;90666.38;;;34.62;13.83
11952;BME280;6036;41.840;23.486;2022-11-15T10:02:56;90665.44;;;31.51;15.96
11952;BME280;6036;41.840;23.486;2022-11-15T10:05:25;90662.66;;;28.56;18.14
11952;BME280;6036;41.840;23.486;2022-11-15T10:10:39;90643.25;;;25.93;22.15
11952;BME280;6036;41.840;23.486;2022-11-15T10:13:21;90645.84;;;24.99;23.06
11952;BME280;6036;41.840;23.486;2022-11-15T10:15:48;90647.56;;;24.54;23.87
11952;BME280;6036;41.840;23.486;2022-11-15T10:21:08;90641.31;;;23.05;26.02
11952;BME280;6036;41.840;23.486;2022-11-15T10:23:38;90633.44;;;22.68;26.48
11952;BME280;6036;41.840;23.486;2022-11-15T10:26:07;90623.66;;;22.28;27.47
11952;BME280;6036;41.840;23.486;2022-11-15T10:28:34;90627.44;;;21.56;28.40
11952;BME280;6036;41.840;23.486;2022-11-15T10:31:00;90617.34;;;21.36;29.62
11952;BME280;6036;41.840;23.486;2022-11-15T10:46:38;90592.66;;;20.26;32.43
11952;BME280;6036;41.840;23.486;2022-11-15T10:51:57;90579.69;;;19.10;33.89
11952;BME280;6036;41.840;23.486;2022-11-15T10:57:13;90570.56;;;19.21;33.64
11952;BME280;6036;41.840;23.486;2022-11-15T10:59:45;90561.81;;;19.38;33.78
11952;BME280;6036;41.840;23.486;2022-11-15T11:05:38;90558.09;;;18.48;35.89
11952;BME280;6036;41.840;23.486;2022-11-15T11:10:36;90545.59;;;18.91;34.16
11952;BME280;6036;41.840;23.486;2022-11-15T11:13:32;90545.16;;;19.24;34.31
11952;BME280;6036;41.840;23.486;2022-11-15T11:16:40;90538.03;;;18.68;35.88
11952;BME280;6036;41.840;23.486;2022-11-15T11:22:16;90542.94;;;18.52;35.49
11952;BME280;6036;41.840;23.486;2022-11-15T11:27:43;90529.28;;;18.29;35.64
11952;BME280;6036;41.840;23.486;2022-11-15T11:30:23;90521.38;;;18.46;36.20
11952;BME280;6036;41.840;23.486;2022-11-15T11:33:17;90523.19;;;18.10;37.33
11952;BME280;6036;41.840;23.486;2022-11-15T11:35:54;90514.00;;;17.62;38.25
11952;BME280;6036;41.840;23.486;2022-11-15T11:41:24;90514.88;;;18.01;37.68
11952;BME280;6036;41.840;23.486;2022-11-15T11:49:08;90504.25;;;17.87;38.10
11952;BME280;6036;41.840;23.486;2022-11-15T11:51:42;90504.25;;;17.91;37.65
11952;BME280;6036;41.840;23.486;2022-11-15T11:56:48;90499.75;;;18.19;36.77
11952;BME280;6036;41.840;23.486;2022-11-15T12:01:44;90497.53;;;18.71;36.09
11952;BME280;6036;41.840;23.486;2022-11-15T12:04:21;90492.22;;;18.39;36.65
11952;BME280;6036;41.840;23.486;2022-11-15T12:07:07;90480.44;;;18.15;37.52
11952;BME280;6036;41.840;23.486;2022-11-15T12:09:44;90478.94;;;18.29;36.88
11952;BME280;6036;41.840;23.486;2022-11-15T12:14:52;90470.63;;;18.27;36.90
11952;BME280;6036;41.840;23.486;2022-11-15T12:17:24;90474.75;;;18.03;38.29
11952;BME280;6036;41.840;23.486;2022-11-15T12:19:52;90461.50;;;17.82;37.50
11952;BME280;6036;41.840;23.486;2022-11-15T12:22:26;90461.16;;;18.11;36.50
11952;BME280;6036;41.840;23.486;2022-11-15T12:25:00;90457.38;;;18.12;36.60
11952;BME280;6036;41.840;23.486;2022-11-15T12:27:40;90456.59;;;17.87;37.04
11952;BME280;6036;41.840;23.486;2022-11-15T12:30:18;90446.41;;;18.03;37.31
11952;BME280;6036;41.840;23.486;2022-11-15T12:33:01;90445.63;;;18.35;37.53
11952;BME280;6036;41.840;23.486;2022-11-15T12:35:39;90438.44;;;18.39;37.22
11952;BME280;6036;41.840;23.486;2022-11-15T12:38:10;90441.09;;;18.60;36.25
11952;BME280;6036;41.840;23.486;2022-11-15T12:41:12;90436.94;;;18.24;35.68
11952;BME280;6036;41.840;23.486;2022-11-15T12:43:41;90437.69;;;18.35;36.01
11952;BME280;6036;41.840;23.486;2022-11-15T12:46:23;90436.19;;;18.34;35.94
11952;BME280;6036;41.840;23.486;2022-11-15T12:49:07;90441.47;;;17.91;35.58
11952;BME280;6036;41.840;23.486;2022-11-15T13:02:44;90423.28;;;17.76;35.38
11952;BME280;6036;41.840;23.486;2022-11-15T13:17:39;90414.25;;;18.19;35.50
11952;BME280;6036;41.840;23.486;2022-11-15T13:30:40;90404.63;;;17.16;35.99
11952;BME280;6036;41.840;23.486;2022-11-15T13:35:52;90408.06;;;17.34;36.62
11952;BME280;6036;41.840;23.486;2022-11-15T13:38:29;90402.38;;;17.25;36.62
11952;BME280;6036;41.840;23.486;2022-11-15T13:40:57;90392.03;;;16.84;37.47
11952;BME280;6036;41.840;23.486;2022-11-15T13:48:39;90397.28;;;16.77;37.84
11952;BME280;6036;41.840;23.486;2022-11-15T13:53:58;90390.94;;;16.27;39.62
11952;BME280;6036;41.840;23.486;2022-11-15T13:56:27;90394.69;;;16.23;39.36
11952;BME280;6036;41.840;23.486;2022-11-15T13:58:54;90387.97;;;16.33;39.44
11952;BME280;6036;41.840;23.486;2022-11-15T14:01:21;90391.63;;;16.14;39.81
11952;BME280;6036;41.840;23.486;2022-11-15T14:03:58;90390.91;;;16.17;39.70
11952;BME280;6036;41.840;23.486;2022-11-15T14:06:25;90383.59;;;16.54;39.57
11952;BME280;6036;41.840;23.486;2022-11-15T14:11:36;90391.03;;;16.38;40.85
11952;BME280;6036;41.840;23.486;2022-11-15T14:16:38;90390.59;;;16.29;41.52
11952;BME280;6036;41.840;23.486;2022-11-15T14:19:05;90387.47;;;16.13;42.05
11952;BME280;6036;41.840;23.486;2022-11-15T14:21:32;90387.16;;;15.71;42.46
11952;BME280;6036;41.840;23.486;2022-11-15T14:24:19;90389.72;;;15.60;43.06
11952;BME280;6036;41.840;23.486;2022-11-15T14:26:45;90388.84;;;15.45;42.70
11952;BME280;6036;41.840;23.486;2022-11-15T14:29:27;90388.94;;;15.59;42.46
11952;BME280;6036;41.840;23.486;2022-11-15T14:32:05;90386.41;;;15.70;42.13
11952;BME280;6036;41.840;23.486;2022-11-15T14:34:32;90383.53;;;15.93;42.13
11952;BME280;6036;41.840;23.486;2022-11-15T14:36:57;90390.44;;;15.60;42.97
11952;BME280;6036;41.840;23.486;2022-11-15T14:39:22;90379.81;;;15.50;43.15
11952;BME280;6036;41.840;23.486;2022-11-15T14:41:50;90379.44;;;15.48;43.00
11952;BME280;6036;41.840;23.486;2022-11-15T14:44:15;90380.16;;;15.48;42.91
11952;BME280;6036;41.840;23.486;2022-11-15T14:46:43;90385.50;;;15.55;42.56
11952;BME280;6036;41.840;23.486;2022-11-15T14:49:09;90382.38;;;15.06;44.07
11952;BME280;6036;41.840;23.486;2022-11-15T14:51:35;90384.81;;;14.55;45.65
11952;BME280;6036;41.840;23.486;2022-11-15T14:54:00;90394.53;;;14.51;45.41
11952;BME280;6036;41.840;23.486;2022-11-15T14:56:26;90388.16;;;14.52;45.04
11952;BME280;6036;41.840;23.486;2022-11-15T14:58:51;90381.19;;;14.11;45.90
11952;BME280;6036;41.840;23.486;2022-11-15T15:01:26;90390.63;;;14.12;46.33
11952;BME280;6036;41.840;23.486;2022-11-15T15:03:52;90386.19;;;14.46;45.16
11952;BME280;6036;41.840;23.486;2022-11-15T15:06:21;90388.94;;;14.26;45.43
11952;BME280;6036;41.840;23.486;2022-11-15T15:08:46;90382.47;;;14.47;44.88
11952;BME280;6036;41.840;23.486;2022-11-15T15:11:23;90398.59;;;14.45;44.82
11952;BME280;6036;41.840;23.486;2022-11-15T15:13:50;90387.38;;;14.52;44.88
11952;BME280;6036;41.840;23.486;2022-11-15T15:16:15;90391.09;;;14.47;44.76
11952;BME280;6036;41.840;23.486;2022-11-15T15:18:41;90389.63;;;14.50;44.75
11952;BME280;6036;41.840;23.486;2022-11-15T15:21:24;90394.81;;;14.16;45.82
11952;BME280;6036;41.840;23.486;2022-11-15T15:23:51;90395.91;;;14.15;45.64
11952;BME280;6036;41.840;23.486;2022-11-15T15:26:17;90397.78;;;14.15;45.99
11952;BME280;6036;41.840;23.486;2022-11-15T15:28:42;90398.94;;;13.91;46.17
11952;BME280;6036;41.840;23.486;2022-11-15T15:31:09;90382.97;;;14.03;45.28